Maersk Drummond — A8JF3 — position and weather

sailwx.info

Track history (hours):
 
Tides and Currents Weather Stations Pressure Air Temp Water Temp Dewpoint Dewpoint Depression Visibility Wind Speed Wind Dir Waves Ship Positions

Maersk Drummond

Last reported at 2014-Jul-30 14:28 UTC. Time now 2014-Jul-30 15:19 UTC.
Position N 38°56' W 025°09'.

Length 294 m; draft 9.4 m.

Type: Ship (hazmat cat A). MMSI: 636091082.

Date/timePositionNaut miles runAvg speedWind from/ knotsBaromVisibWave heightAir tempDewpointWater temp
2014-Jul-30 14:28N 38°56' W 025°09'1515.9
2014-Jul-30 13:33N 38°58' W 025°27'7815.6
2014-Jul-30 08:33N 39°09' W 027°07'1615.8
2014-Jul-30 07:33N 39°10' W 027°27'1615.2
2014-Jul-30 06:32N 39°13' W 027°47'1515.0
2014-Jul-30 05:33N 39°14' W 028°06'1515.5
2014-Jul-30 04:34N 39°13' W 028°26'1615.8
2014-Jul-30 03:33N 39°13' W 028°46'1515.5
2014-Jul-30 02:33N 39°13' W 029°06'1615.7
2014-Jul-30 01:33N 39°12' W 029°26'1515.4
2014-Jul-30 00:33N 39°12' W 029°46'1515.3
2014-Jul-29 23:33N 39°11' W 030°06'1615.6
2014-Jul-29 22:33N 39°11' W 030°26'  
2014-Jul-22 21:06N 26°37' W 079°24'1016.0
2014-Jul-22 20:28N 26°27' W 079°27'1313.9
2014-Jul-22 19:33N 26°19' W 079°38'1615.7
2014-Jul-22 18:33N 26°11' W 079°53'1313.2
2014-Jul-22 17:34N 26°06' W 080°07'1 1.3
2014-Jul-22 16:29N 26°04' W 080°07'0 0.0
2014-Jul-22 15:29N 26°04' W 080°07'0 0.0
2014-Jul-22 14:32N 26°04' W 080°07'0 0.0
2014-Jul-22 13:32N 26°04' W 080°07'0 0.0
2014-Jul-22 12:32N 26°04' W 080°07'0 0.0
2014-Jul-22 11:32N 26°04' W 080°07'1 1.4
2014-Jul-22 10:34N 26°06' W 080°07'5 4.6
2014-Jul-22 09:34N 26°03' W 080°03'1110.8
2014-Jul-22 08:33N 25°53' W 079°60'1414.2
2014-Jul-22 07:33N 25°39' W 079°57'  
Track history (hours):
 
Tides and Currents Weather Stations Pressure Air Temp Water Temp Dewpoint Dewpoint Depression Visibility Wind Speed Wind Dir Waves Ship Positions

Maersk Drummond

Last reported at 2014-Jul-30 14:28 UTC. Time now 2014-Jul-30 15:19 UTC.
Position N 38°56' W 025°09'.

Length 294 m; draft 9.4 m.

Type: Ship (hazmat cat A). MMSI: 636091082.

Date/timePositionNaut miles runAvg speedWind from/ knotsBaromVisibWave heightAir tempDewpointWater temp
2014-Jul-30 14:28N 38°56' W 025°09'1515.9
2014-Jul-30 13:33N 38°58' W 025°27'7815.6
2014-Jul-30 08:33N 39°09' W 027°07'1615.8
2014-Jul-30 07:33N 39°10' W 027°27'1615.2
2014-Jul-30 06:32N 39°13' W 027°47'1515.0
2014-Jul-30 05:33N 39°14' W 028°06'1515.5
2014-Jul-30 04:34N 39°13' W 028°26'1615.8
2014-Jul-30 03:33N 39°13' W 028°46'1515.5
2014-Jul-30 02:33N 39°13' W 029°06'1615.7
2014-Jul-30 01:33N 39°12' W 029°26'1515.4
2014-Jul-30 00:33N 39°12' W 029°46'1515.3
2014-Jul-29 23:33N 39°11' W 030°06'1615.6
2014-Jul-29 22:33N 39°11' W 030°26'  
2014-Jul-22 21:06N 26°37' W 079°24'1016.0
2014-Jul-22 20:28N 26°27' W 079°27'1313.9
2014-Jul-22 19:33N 26°19' W 079°38'1615.7
2014-Jul-22 18:33N 26°11' W 079°53'1313.2
2014-Jul-22 17:34N 26°06' W 080°07'1 1.3
2014-Jul-22 16:29N 26°04' W 080°07'0 0.0
2014-Jul-22 15:29N 26°04' W 080°07'0 0.0
2014-Jul-22 14:32N 26°04' W 080°07'0 0.0
2014-Jul-22 13:32N 26°04' W 080°07'0 0.0
2014-Jul-22 12:32N 26°04' W 080°07'0 0.0
2014-Jul-22 11:32N 26°04' W 080°07'1 1.4
2014-Jul-22 10:34N 26°06' W 080°07'5 4.6
2014-Jul-22 09:34N 26°03' W 080°03'1110.8
2014-Jul-22 08:33N 25°53' W 079°60'1414.2
2014-Jul-22 07:33N 25°39' W 079°57'  

Dump ship's entire track history